createdAt,value
2017-05-01T00:00:28.552Z,0
2017-05-01T00:01:09.008Z,0
2017-05-01T00:01:49.521Z,0
2017-05-01T00:02:30.007Z,0
2017-05-01T00:03:10.548Z,0
2017-05-01T00:03:51.074Z,0
2017-05-01T00:04:31.571Z,0
2017-05-01T00:05:12.071Z,0
2017-05-01T00:05:52.542Z,0
2017-05-01T00:06:33.041Z,0
2017-05-01T00:07:13.496Z,0
2017-05-01T00:07:53.971Z,0
2017-05-01T00:08:34.449Z,0
2017-05-01T00:09:14.937Z,0
2017-05-01T00:09:55.432Z,0
2017-05-01T00:10:35.919Z,0
2017-05-01T00:11:16.418Z,0
2017-05-01T00:11:56.885Z,0
2017-05-01T00:12:37.391Z,0
2017-05-01T00:13:17.870Z,0
2017-05-01T00:13:58.388Z,0
2017-05-01T00:14:38.862Z,0
2017-05-01T00:15:19.322Z,0
2017-05-01T00:15:59.830Z,0
2017-05-01T00:16:40.295Z,0
2017-05-01T00:17:20.750Z,0
2017-05-01T00:18:01.236Z,0
2017-05-01T00:18:41.719Z,0
2017-05-01T00:19:22.238Z,0
2017-05-01T00:20:02.716Z,0
2017-05-01T00:20:43.180Z,0
2017-05-01T00:21:23.699Z,0
2017-05-01T00:22:04.205Z,0
2017-05-01T00:22:44.712Z,0
2017-05-01T00:23:25.200Z,0
2017-05-01T00:24:05.738Z,0
2017-05-01T00:24:46.226Z,0
2017-05-01T00:25:26.749Z,0
2017-05-01T00:26:07.236Z,0
2017-05-01T00:26:47.743Z,0
2017-05-01T00:27:28.219Z,0
2017-05-01T00:28:08.716Z,0
2017-05-01T00:28:49.177Z,0
2017-05-01T00:29:29.695Z,0
2017-05-01T00:30:10.211Z,0
2017-05-01T00:30:50.693Z,0
2017-05-01T00:31:31.186Z,0
2017-05-01T00:32:11.662Z,0
2017-05-01T00:32:52.180Z,0
2017-05-01T00:33:32.652Z,0
2017-05-01T00:34:13.122Z,0
2017-05-01T00:34:53.621Z,0
2017-05-01T00:35:34.089Z,0
2017-05-01T00:36:14.612Z,0
2017-05-01T00:36:55.077Z,0
2017-05-01T00:37:35.562Z,0
2017-05-01T00:38:16.043Z,0
2017-05-01T00:38:56.522Z,0
2017-05-01T00:39:36.999Z,0
2017-05-01T00:40:17.511Z,0
2017-05-01T00:40:57.977Z,0
2017-05-01T00:41:38.423Z,0
2017-05-01T00:42:18.908Z,0
2017-05-01T00:42:59.375Z,0
2017-05-01T00:43:39.883Z,0
2017-05-01T00:44:20.371Z,0
2017-05-01T00:45:00.863Z,0
2017-05-01T00:45:41.350Z,0
2017-05-01T00:46:21.837Z,0
2017-05-01T00:47:02.356Z,0
2017-05-01T00:47:42.803Z,0
2017-05-01T00:48:23.310Z,0
2017-05-01T00:49:03.813Z,0
2017-05-01T00:49:44.310Z,0
2017-05-01T00:50:24.765Z,0
2017-05-01T00:51:05.288Z,0
2017-05-01T00:51:45.791Z,0
2017-05-01T00:52:26.304Z,0
2017-05-01T00:53:06.768Z,0
2017-05-01T00:53:47.237Z,0
2017-05-01T00:54:27.733Z,0
2017-05-01T00:55:08.236Z,0
2017-05-01T00:55:48.739Z,0
2017-05-01T00:56:29.208Z,0
2017-05-01T00:57:09.685Z,0
2017-05-01T00:57:50.172Z,0
2017-05-01T00:58:30.650Z,0
2017-05-01T00:59:11.126Z,0
2017-05-01T00:59:51.585Z,0
2017-05-01T01:00:32.082Z,0
2017-05-01T01:01:12.562Z,0
2017-05-01T01:01:53.038Z,0
2017-05-01T01:02:33.527Z,0
2017-05-01T01:03:13.998Z,0
2017-05-01T01:03:54.485Z,0
2017-05-01T01:04:34.973Z,0
2017-05-01T01:05:15.434Z,0
2017-05-01T01:05:55.883Z,0
2017-05-01T01:06:36.396Z,0
2017-05-01T01:07:16.900Z,0
2017-05-01T01:07:57.379Z,0
2017-05-01T01:08:37.840Z,0
2017-05-01T01:09:18.339Z,0
2017-05-01T01:09:58.842Z,0
2017-05-01T01:10:39.307Z,0
2017-05-01T01:11:19.785Z,0
2017-05-01T01:12:00.308Z,0
2017-05-01T01:12:40.761Z,0
2017-05-01T01:13:21.236Z,0
2017-05-01T01:14:01.731Z,0
2017-05-01T01:14:42.197Z,0
2017-05-01T01:15:22.674Z,0
2017-05-01T01:16:03.199Z,0
2017-05-01T01:16:43.700Z,0
2017-05-01T01:17:24.197Z,0
2017-05-01T01:18:04.700Z,0
2017-05-01T01:18:45.196Z,0
2017-05-01T01:19:25.756Z,0
2017-05-01T01:20:06.218Z,0
2017-05-01T01:20:46.876Z,0
2017-05-01T01:21:27.319Z,0
2017-05-01T01:22:07.875Z,0
2017-05-01T01:22:48.335Z,0
2017-05-01T01:23:28.837Z,0
2017-05-01T01:24:09.364Z,0
2017-05-01T01:24:49.844Z,0
2017-05-01T01:25:30.338Z,0
2017-05-01T01:26:10.829Z,0
2017-05-01T01:26:51.302Z,0
2017-05-01T01:27:31.791Z,0
2017-05-01T01:28:12.311Z,0
2017-05-01T01:28:52.778Z,0
2017-05-01T01:29:33.269Z,0
2017-05-01T01:30:13.718Z,0
2017-05-01T01:30:54.191Z,0
2017-05-01T01:31:34.680Z,0
2017-05-01T01:32:15.133Z,0
2017-05-01T01:32:55.643Z,0
2017-05-01T01:33:36.146Z,0
2017-05-01T01:34:16.662Z,0
2017-05-01T01:34:57.174Z,0
2017-05-01T01:35:37.651Z,0
2017-05-01T01:36:18.121Z,0
2017-05-01T01:36:58.638Z,0
2017-05-01T01:37:39.100Z,0
2017-05-01T01:38:19.620Z,0
2017-05-01T01:39:00.095Z,0
2017-05-01T01:39:40.572Z,0
2017-05-01T01:40:21.056Z,0
2017-05-01T01:41:01.529Z,0
2017-05-01T01:41:42.063Z,0
2017-05-01T01:44:10.565Z,0
2017-05-01T01:44:51.025Z,0
2017-05-01T01:45:31.541Z,0
2017-05-01T01:46:12.006Z,0
2017-05-01T01:46:52.501Z,0
2017-05-01T01:47:32.961Z,0
2017-05-01T01:48:13.458Z,0
2017-05-01T01:48:53.947Z,0
2017-05-01T01:49:34.448Z,0
2017-05-01T01:50:14.873Z,0
2017-05-01T01:50:55.361Z,0
2017-05-01T01:51:35.893Z,0
2017-05-01T01:52:16.351Z,0
2017-05-01T01:52:56.841Z,0
2017-05-01T01:53:37.323Z,0
2017-05-01T01:54:17.802Z,0
2017-05-01T01:54:58.293Z,0
2017-05-01T01:55:38.764Z,0
2017-05-01T01:56:19.267Z,0
2017-05-01T01:56:59.715Z,0
2017-05-01T01:57:40.191Z,0
2017-05-01T01:58:23.292Z,0
2017-05-01T01:59:03.750Z,0
2017-05-01T01:59:44.263Z,0
2017-05-01T02:00:24.757Z,0
2017-05-01T02:01:05.227Z,0
2017-05-01T02:01:45.680Z,0
2017-05-01T02:02:26.165Z,0
2017-05-01T02:03:06.653Z,0
2017-05-01T02:03:47.141Z,0
2017-05-01T02:04:27.601Z,0
2017-05-01T02:05:08.099Z,0
2017-05-01T02:05:48.577Z,0
2017-05-01T02:06:29.089Z,0
2017-05-01T02:07:09.569Z,0
2017-05-01T02:07:50.042Z,0
2017-05-01T02:08:30.507Z,0
2017-05-01T02:09:10.976Z,0
2017-05-01T02:09:51.455Z,0
2017-05-01T02:10:31.970Z,0
2017-05-01T02:11:12.414Z,0
2017-05-01T02:11:52.927Z,0
2017-05-01T02:12:33.420Z,0
2017-05-01T02:13:13.881Z,0
2017-05-01T02:13:54.387Z,0
2017-05-01T02:14:34.863Z,0
2017-05-01T02:15:15.356Z,0
2017-05-01T02:15:55.855Z,0
2017-05-01T02:16:36.332Z,0
2017-05-01T02:17:16.824Z,0
2017-05-01T02:17:57.311Z,0
2017-05-01T02:18:37.812Z,0
2017-05-01T02:19:18.294Z,0
2017-05-01T02:19:58.787Z,0
2017-05-01T02:20:39.257Z,0
2017-05-01T02:21:19.734Z,0
2017-05-01T02:22:00.203Z,0
2017-05-01T02:22:40.677Z,0
2017-05-01T02:23:21.150Z,0
2017-05-01T02:24:01.645Z,0
2017-05-01T02:24:42.123Z,0
2017-05-01T02:25:22.581Z,0
2017-05-01T02:26:03.109Z,0
2017-05-01T02:26:43.586Z,0
2017-05-01T02:27:24.106Z,0
2017-05-01T02:28:04.585Z,0
2017-05-01T02:28:45.060Z,0
2017-05-01T02:29:25.588Z,0
2017-05-01T02:30:06.093Z,0
2017-05-01T02:30:46.564Z,0
2017-05-01T02:31:27.052Z,0
2017-05-01T02:32:07.540Z,0
2017-05-01T02:32:47.993Z,0
2017-05-01T02:33:28.490Z,0
2017-05-01T02:34:08.981Z,0
2017-05-01T02:34:49.434Z,0
2017-05-01T02:35:29.937Z,0
2017-05-01T02:36:10.473Z,0
2017-05-01T02:36:50.934Z,0
2017-05-01T02:37:31.438Z,0
2017-05-01T02:38:11.930Z,0
2017-05-01T02:38:52.418Z,0
2017-05-01T02:39:32.901Z,0
2017-05-01T02:40:13.380Z,0
2017-05-01T02:40:53.872Z,0
2017-05-01T02:41:34.373Z,0
2017-05-01T02:42:14.815Z,0
2017-05-01T02:42:55.272Z,0
2017-05-01T02:43:35.760Z,0
2017-05-01T02:45:34.912Z,0
2017-05-01T02:46:15.330Z,0
2017-05-01T02:46:55.853Z,0
2017-05-01T02:47:36.341Z,0
2017-05-01T02:48:16.790Z,0
2017-05-01T02:48:57.258Z,0
2017-05-01T02:49:37.735Z,0
2017-05-01T02:50:18.238Z,0
2017-05-01T02:50:58.728Z,0
2017-05-01T02:51:39.251Z,0
2017-05-01T02:52:19.730Z,0
2017-05-01T02:53:00.202Z,0
2017-05-01T02:53:40.746Z,0
2017-05-01T02:54:21.260Z,0
2017-05-01T02:55:01.706Z,0
2017-05-01T02:55:42.207Z,0
2017-05-01T02:56:22.689Z,0
2017-05-01T02:57:03.216Z,0
2017-05-01T02:57:43.675Z,0
2017-05-01T02:58:24.129Z,0
2017-05-01T02:59:04.623Z,0
2017-05-01T02:59:45.119Z,0
2017-05-01T03:00:25.618Z,0
2017-05-01T03:01:06.193Z,0
2017-05-01T03:01:46.669Z,0
2017-05-01T03:02:27.159Z,0
2017-05-01T03:03:07.666Z,0
2017-05-01T03:03:48.154Z,0
2017-05-01T03:04:28.644Z,0
2017-05-01T03:05:09.116Z,0
2017-05-01T03:05:49.665Z,0
2017-05-01T03:06:30.138Z,4
2017-05-01T03:07:10.663Z,4
2017-05-01T03:07:51.146Z,4
2017-05-01T03:08:31.775Z,0
2017-05-01T03:09:12.203Z,0
2017-05-01T03:09:52.715Z,0
2017-05-01T03:10:33.248Z,4
2017-05-01T03:11:13.699Z,4
2017-05-01T03:11:54.190Z,4
2017-05-01T03:12:34.694Z,0
2017-05-01T03:13:15.185Z,4
2017-05-01T03:13:55.685Z,4
2017-05-01T03:14:36.176Z,4
2017-05-01T03:15:16.660Z,4
2017-05-01T03:15:57.161Z,4
2017-05-01T03:16:37.642Z,8
2017-05-01T03:17:18.173Z,4
2017-05-01T03:17:58.641Z,8
2017-05-01T03:18:39.113Z,8
2017-05-01T03:19:19.582Z,8
2017-05-01T03:20:00.067Z,8
2017-05-01T03:20:40.606Z,12
2017-05-01T03:21:21.073Z,12
2017-05-01T03:22:01.538Z,12
2017-05-01T03:22:42.012Z,16
2017-05-01T03:23:22.513Z,16
2017-05-01T03:24:03.012Z,12
2017-05-01T03:24:43.489Z,16
2017-05-01T03:25:23.976Z,20
2017-05-01T03:26:04.487Z,20
2017-05-01T03:26:44.935Z,20
2017-05-01T03:27:25.425Z,24
2017-05-01T03:28:05.909Z,28
2017-05-01T03:28:46.427Z,32
2017-05-01T03:29:26.907Z,32
2017-05-01T03:30:07.419Z,36
2017-05-01T03:30:47.904Z,36
2017-05-01T03:31:28.417Z,40
2017-05-01T03:32:08.889Z,44
2017-05-01T03:32:49.425Z,48
2017-05-01T03:33:29.905Z,52
2017-05-01T03:34:10.437Z,56
2017-05-01T03:34:50.929Z,60
2017-05-01T03:35:31.443Z,68
2017-05-01T03:36:11.956Z,72
2017-05-01T03:36:52.398Z,76
2017-05-01T03:37:32.880Z,84
2017-05-01T03:38:13.387Z,88
2017-05-01T03:38:53.887Z,96
2017-05-01T03:39:34.399Z,104
2017-05-01T03:40:14.872Z,112
2017-05-01T03:40:55.363Z,116
2017-05-01T03:41:35.882Z,124
2017-05-01T03:42:16.381Z,132
2017-05-01T03:42:56.878Z,140
2017-05-01T03:43:37.407Z,148
2017-05-01T03:44:17.910Z,156
2017-05-01T03:44:58.444Z,168
2017-05-01T03:45:38.951Z,180
2017-05-01T03:46:19.432Z,192
2017-05-01T03:47:00.863Z,200
2017-05-01T03:47:41.347Z,212
2017-05-01T03:48:21.876Z,228
2017-05-01T03:49:02.362Z,240
2017-05-01T03:49:42.852Z,252
2017-05-01T03:50:23.334Z,268
2017-05-01T03:51:03.798Z,280
2017-05-01T03:51:44.290Z,296
2017-05-01T03:52:24.785Z,308
2017-05-01T03:53:05.245Z,324
2017-05-01T03:53:45.801Z,336
2017-05-01T03:54:26.330Z,352
2017-05-01T03:55:06.826Z,368
2017-05-01T03:55:47.328Z,380
2017-05-01T03:56:27.789Z,396
2017-05-01T03:57:08.291Z,408
2017-05-01T03:57:48.767Z,424
2017-05-01T03:58:29.249Z,440
2017-05-01T03:59:09.759Z,452
2017-05-01T03:59:50.246Z,464
2017-05-01T04:00:30.712Z,476
2017-05-01T04:01:11.219Z,488
2017-05-01T04:01:51.679Z,500
2017-05-01T04:02:32.232Z,516
2017-05-01T04:03:12.684Z,524
2017-05-01T04:03:53.169Z,532
2017-05-01T04:04:33.661Z,544
2017-05-01T04:05:14.145Z,552
2017-05-01T04:05:54.618Z,564
2017-05-01T04:06:35.108Z,568
2017-05-01T04:07:15.661Z,572
2017-05-01T04:07:56.160Z,580
2017-05-01T04:08:36.679Z,588
2017-05-01T04:09:17.138Z,600
2017-05-01T04:09:57.634Z,604
2017-05-01T04:10:38.107Z,612
2017-05-01T04:11:18.584Z,624
2017-05-01T04:11:59.083Z,636
2017-05-01T04:12:39.588Z,648
2017-05-01T04:13:20.095Z,656
2017-05-01T04:14:00.591Z,668
2017-05-01T04:14:41.050Z,680
2017-05-01T04:15:21.537Z,688
2017-05-01T04:17:56.152Z,728
2017-05-01T04:18:36.646Z,736
2017-05-01T04:19:17.111Z,744
2017-05-01T04:19:57.635Z,756
2017-05-01T04:20:38.144Z,772
2017-05-01T04:21:18.607Z,784
2017-05-01T04:21:59.093Z,796
2017-05-01T04:22:39.604Z,812
2017-05-01T04:23:20.079Z,824
2017-05-01T04:24:00.550Z,840
2017-05-01T04:24:41.057Z,856
2017-05-01T04:25:21.523Z,868
2017-05-01T04:26:02.007Z,884
2017-05-01T04:26:42.519Z,900
2017-05-01T04:27:22.952Z,920
2017-05-01T04:28:03.438Z,940
2017-05-01T04:28:43.951Z,960
2017-05-01T04:29:24.433Z,984
2017-05-01T04:30:04.944Z,1004
2017-05-01T04:30:45.435Z,1012
2017-05-01T04:31:25.945Z,1028
2017-05-01T04:32:06.413Z,1036
2017-05-01T04:32:46.936Z,1048
2017-05-01T04:33:27.434Z,1056
2017-05-01T04:34:07.908Z,1072
2017-05-01T04:34:48.407Z,1088
2017-05-01T04:35:28.868Z,1108
2017-05-01T04:37:43.979Z,1160
2017-05-01T04:38:24.370Z,1168
2017-05-01T04:39:04.870Z,1184
2017-05-01T04:39:45.330Z,1200
2017-05-01T04:40:25.807Z,1212
2017-05-01T04:41:06.303Z,1228
2017-05-01T04:41:46.833Z,1244
2017-05-01T04:42:27.308Z,1260
2017-05-01T04:43:07.813Z,1276
2017-05-01T04:43:48.302Z,1296
2017-05-01T04:44:28.806Z,1316
2017-05-01T04:45:09.287Z,1336
2017-05-01T04:45:49.801Z,1360
2017-05-01T04:46:30.272Z,1384
2017-05-01T04:47:10.815Z,1412
2017-05-01T04:47:51.279Z,1440
2017-05-01T04:48:31.896Z,1468
2017-05-01T04:49:12.257Z,1496
2017-05-01T04:49:52.738Z,1524
2017-05-01T04:50:33.231Z,1544
2017-05-01T04:51:13.730Z,1564
2017-05-01T04:51:54.265Z,1584
2017-05-01T04:52:34.752Z,1608
2017-05-01T04:53:15.265Z,1632
2017-05-01T04:53:55.798Z,1656
2017-05-01T04:54:36.250Z,1676
2017-05-01T04:55:16.775Z,1700
2017-05-01T04:55:57.263Z,1724
2017-05-01T04:56:37.754Z,1748
2017-05-01T04:57:18.249Z,1776
2017-05-01T04:57:58.727Z,1796
2017-05-01T04:58:39.225Z,1816
2017-05-01T04:59:19.735Z,1832
2017-05-01T05:00:00.225Z,1848
2017-05-01T05:00:40.752Z,1864
2017-05-01T05:01:21.176Z,1888
2017-05-01T05:02:01.640Z,1912
2017-05-01T05:02:42.100Z,1944
2017-05-01T05:03:22.610Z,1968
2017-05-01T05:04:03.120Z,2004
2017-05-01T05:04:43.582Z,2036
2017-05-01T05:05:24.060Z,2064
2017-05-01T05:06:04.574Z,2100
2017-05-01T05:06:45.025Z,2136
2017-05-01T05:07:25.510Z,2172
2017-05-01T05:08:05.974Z,2204
2017-05-01T05:08:46.477Z,2244
2017-05-01T05:09:26.949Z,2284
2017-05-01T05:10:07.426Z,2316
2017-05-01T05:10:47.913Z,2352
2017-05-01T05:11:28.404Z,2388
2017-05-01T05:12:08.849Z,2432
2017-05-01T05:12:49.338Z,2476
2017-05-01T05:13:29.814Z,2516
2017-05-01T05:14:10.295Z,2548
2017-05-01T05:14:50.806Z,2580
2017-05-01T05:15:31.294Z,2600
2017-05-01T05:16:11.790Z,2620
2017-05-01T05:16:52.249Z,2644
2017-05-01T05:17:32.723Z,2668
2017-05-01T05:18:13.191Z,2688
2017-05-01T05:18:53.684Z,2712
2017-05-01T05:19:34.167Z,2740
2017-05-01T05:20:14.635Z,2764
2017-05-01T05:20:55.130Z,2792
2017-05-01T05:21:35.614Z,2812
2017-05-01T05:22:16.156Z,2836
2017-05-01T05:22:56.647Z,2856
2017-05-01T05:23:37.145Z,2872
2017-05-01T05:24:17.638Z,2892
2017-05-01T05:24:58.121Z,2900
2017-05-01T05:25:38.599Z,2908
2017-05-01T05:26:19.095Z,2916
2017-05-01T05:26:59.588Z,2932
2017-05-01T05:27:40.091Z,2940
2017-05-01T05:28:20.555Z,2952
2017-05-01T05:29:01.040Z,2972
2017-05-01T05:29:41.501Z,2992
2017-05-01T05:30:22.008Z,3000
2017-05-01T05:31:02.512Z,3004
2017-05-01T05:31:42.998Z,2996
2017-05-01T05:32:23.504Z,3004
2017-05-01T05:33:04.002Z,3016
2017-05-01T05:33:44.483Z,3012
2017-05-01T05:34:25.006Z,2992
2017-05-01T05:35:05.449Z,2992
2017-05-01T05:35:46.002Z,2996
2017-05-01T05:36:26.481Z,2980
2017-05-01T05:37:07.027Z,2968
2017-05-01T05:37:47.566Z,2956
2017-05-01T05:38:28.016Z,2944
2017-05-01T05:39:08.546Z,2944
2017-05-01T05:39:49.049Z,2948
2017-05-01T05:40:29.568Z,2948
2017-05-01T05:41:10.011Z,2936
2017-05-01T05:41:50.485Z,2928
2017-05-01T05:42:31.013Z,2920
2017-05-01T05:43:11.477Z,2908
2017-05-01T05:43:52.013Z,2920
2017-05-01T05:44:32.514Z,2916
2017-05-01T05:45:13.000Z,2920
2017-05-01T05:45:53.470Z,2916
2017-05-01T05:46:33.996Z,2904
2017-05-01T05:47:14.528Z,2884
2017-05-01T05:47:55.023Z,2872
2017-05-01T05:48:35.514Z,2868
2017-05-01T05:49:16.006Z,2864
2017-05-01T05:49:56.529Z,2864
2017-05-01T05:50:37.105Z,2876
2017-05-01T05:51:17.629Z,2904
2017-05-01T05:51:58.141Z,2948
2017-05-01T05:52:38.607Z,2984
2017-05-01T05:53:19.104Z,3016
2017-05-01T05:53:59.608Z,3032
2017-05-01T05:54:40.119Z,3060
2017-05-01T05:55:20.607Z,3080
2017-05-01T05:56:01.108Z,3092
2017-05-01T05:56:41.583Z,3100
2017-05-01T05:57:22.094Z,3104
2017-05-01T05:58:02.552Z,3108
2017-05-01T05:58:43.048Z,3120
2017-05-01T05:59:23.541Z,3164
2017-05-01T06:00:04.038Z,3164
2017-05-01T06:00:44.515Z,3184
2017-05-01T06:01:25.043Z,3224
2017-05-01T06:02:05.531Z,3244
2017-05-01T06:02:46.030Z,3268
2017-05-01T06:03:26.501Z,3288
2017-05-01T06:04:07.045Z,3304
2017-05-01T06:04:47.510Z,3320
2017-05-01T06:05:27.958Z,3336
2017-05-01T06:06:08.471Z,3352
2017-05-01T06:06:48.962Z,3368
2017-05-01T06:07:29.429Z,3384
2017-05-01T06:08:09.916Z,3396
2017-05-01T06:08:50.387Z,3380
2017-05-01T06:09:30.916Z,3368
2017-05-01T06:10:11.415Z,3396
2017-05-01T06:10:51.917Z,3428
2017-05-01T06:11:32.375Z,3428
2017-05-01T06:12:12.868Z,3440
2017-05-01T06:12:53.347Z,3456
2017-05-01T06:13:33.824Z,3460
2017-05-01T06:14:14.307Z,3480
2017-05-01T06:14:54.785Z,3516
2017-05-01T06:15:35.269Z,3552
2017-05-01T06:16:15.757Z,3580
2017-05-01T06:16:56.257Z,3604
2017-05-01T06:17:36.758Z,3628
2017-05-01T06:18:17.232Z,3648
2017-05-01T06:18:57.723Z,3672
2017-05-01T06:19:38.222Z,3680
2017-05-01T06:20:18.709Z,3680
2017-05-01T06:20:59.153Z,3732
2017-05-01T06:21:39.661Z,3772
2017-05-01T06:22:20.204Z,3808
2017-05-01T06:23:00.637Z,3844
2017-05-01T06:23:41.134Z,3860
2017-05-01T06:24:21.633Z,3908
2017-05-01T06:25:02.163Z,3952
2017-05-01T06:25:42.645Z,3996
2017-05-01T06:26:23.118Z,4032
2017-05-01T06:27:03.681Z,4084
2017-05-01T06:27:44.157Z,4136
2017-05-01T06:28:24.645Z,4196
2017-05-01T06:29:05.199Z,4268
2017-05-01T06:29:45.712Z,4336
2017-05-01T06:30:26.216Z,4416
2017-05-01T06:31:06.735Z,4500
2017-05-01T06:31:47.276Z,4584
2017-05-01T06:32:27.782Z,4664
2017-05-01T06:33:08.245Z,4748
2017-05-01T06:33:48.726Z,4820
2017-05-01T06:34:29.209Z,4896
2017-05-01T06:35:09.662Z,4960
2017-05-01T06:35:50.143Z,5016
2017-05-01T06:36:30.635Z,5056
2017-05-01T06:37:11.136Z,5088
2017-05-01T06:37:51.639Z,5088
2017-05-01T06:38:32.100Z,5124
2017-05-01T06:39:12.623Z,5144
2017-05-01T06:39:53.089Z,5164
2017-05-01T06:40:33.558Z,5168
2017-05-01T06:41:14.063Z,5172
2017-05-01T06:41:54.541Z,5160
2017-05-01T06:42:35.060Z,5148
2017-05-01T06:43:15.538Z,5116
2017-05-01T06:43:56.078Z,5092
2017-05-01T06:44:36.601Z,5060
2017-05-01T06:45:17.073Z,5044
2017-05-01T06:45:57.590Z,5036
2017-05-01T06:46:38.092Z,5012
2017-05-01T06:47:18.620Z,4976
2017-05-01T06:47:59.061Z,4948
2017-05-01T06:48:39.589Z,4948
2017-05-01T06:49:20.050Z,4936
2017-05-01T06:50:00.568Z,4932
2017-05-01T06:50:41.053Z,4924
2017-05-01T06:53:09.496Z,4864
2017-05-01T06:53:49.956Z,4864
2017-05-01T06:54:30.465Z,4852
2017-05-01T06:55:10.986Z,4836
2017-05-01T06:55:51.422Z,4828
2017-05-01T06:56:32.062Z,4796
2017-05-01T06:57:12.430Z,4776
2017-05-01T06:57:52.900Z,4768
2017-05-01T06:58:33.432Z,4772
2017-05-01T06:59:13.917Z,4796
2017-05-01T06:59:54.365Z,4792
2017-05-01T07:00:34.869Z,4784
2017-05-01T07:01:15.357Z,4792
2017-05-01T07:01:55.827Z,4816
2017-05-01T07:02:36.318Z,4848
2017-05-01T07:03:16.807Z,4836
2017-05-01T07:03:57.296Z,4824
2017-05-01T07:04:37.754Z,4824
2017-05-01T07:05:18.220Z,4792
2017-05-01T07:05:58.697Z,4768
2017-05-01T07:06:39.214Z,4752
2017-05-01T07:07:19.700Z,4716
2017-05-01T07:08:00.201Z,4696
2017-05-01T07:08:40.670Z,4668
2017-05-01T07:09:21.198Z,4660
2017-05-01T07:10:01.680Z,4612
2017-05-01T07:10:42.225Z,4576
2017-05-01T07:11:22.778Z,4544
2017-05-01T07:12:03.294Z,4512
2017-05-01T07:12:43.781Z,4480
2017-05-01T07:13:24.264Z,4452
2017-05-01T07:14:04.776Z,4440
2017-05-01T07:14:45.284Z,4388
2017-05-01T07:15:25.779Z,4360
2017-05-01T07:16:06.262Z,4296
2017-05-01T07:16:46.792Z,4240
2017-05-01T07:17:27.267Z,4256
2017-05-01T07:18:07.759Z,4236
2017-05-01T07:18:48.241Z,4232
2017-05-01T07:19:28.880Z,4228
2017-05-01T07:20:09.352Z,4264
2017-05-01T07:20:49.850Z,4276
2017-05-01T07:21:30.365Z,4308
2017-05-01T07:22:10.913Z,4320
2017-05-01T07:22:51.357Z,4332
2017-05-01T07:23:31.869Z,4348
2017-05-01T07:24:12.418Z,4352
2017-05-01T07:24:52.903Z,4364
2017-05-01T07:25:33.424Z,4376
2017-05-01T07:26:13.911Z,4376
2017-05-01T07:27:00.969Z,4380
2017-05-01T07:27:41.441Z,4404
2017-05-01T07:28:22.006Z,4440
2017-05-01T07:29:02.517Z,4480
2017-05-01T07:29:43.073Z,4508
2017-05-01T07:30:23.587Z,4528
2017-05-01T07:31:04.084Z,4544
2017-05-01T07:31:44.567Z,4568
2017-05-01T07:32:25.018Z,4584
2017-05-01T07:33:05.522Z,4604
2017-05-01T07:33:46.090Z,4612
2017-05-01T07:34:26.551Z,4616
2017-05-01T07:35:07.039Z,4620
2017-05-01T07:35:47.494Z,4632
2017-05-01T07:36:28.042Z,4588
2017-05-01T07:37:08.517Z,4576
2017-05-01T07:37:49.040Z,4612
2017-05-01T07:38:29.522Z,4628
2017-05-01T07:39:10.081Z,4636
2017-05-01T07:39:50.606Z,4644
2017-05-01T07:40:31.128Z,4668
2017-05-01T07:41:11.622Z,4688
2017-05-01T07:41:52.158Z,4700
2017-05-01T07:42:32.630Z,4724
2017-05-01T07:43:13.110Z,4752
2017-05-01T07:43:53.608Z,4764
2017-05-01T07:44:34.108Z,4796
2017-05-01T07:45:14.568Z,4816
2017-05-01T07:45:55.055Z,4836
2017-05-01T07:46:35.530Z,4880
2017-05-01T07:47:16.011Z,4904
2017-05-01T07:47:56.480Z,4928
2017-05-01T07:48:36.978Z,4964
2017-05-01T07:49:17.451Z,4988
2017-05-01T07:49:57.967Z,5028
2017-05-01T07:52:17.141Z,5148
2017-05-01T07:52:57.633Z,5168
2017-05-01T07:53:38.127Z,5204
2017-05-01T07:54:18.664Z,5248
2017-05-01T07:54:59.174Z,5284
2017-05-01T07:55:39.643Z,5316
2017-05-01T07:56:20.088Z,5336
2017-05-01T07:57:00.629Z,5372
2017-05-01T07:57:41.098Z,5364
2017-05-01T07:58:21.569Z,5384
2017-05-01T07:59:02.075Z,5440
2017-05-01T07:59:42.564Z,5504
2017-05-01T08:00:23.052Z,5564
2017-05-01T08:01:03.556Z,5632
2017-05-01T08:01:44.014Z,5688
2017-05-01T08:02:24.485Z,5752
2017-05-01T08:03:04.980Z,5804
2017-05-01T08:03:45.487Z,5844
2017-05-01T08:04:26.006Z,5884
2017-05-01T08:05:06.517Z,5928
2017-05-01T08:05:47.032Z,5968
2017-05-01T08:06:27.500Z,5996
2017-05-01T08:07:07.993Z,6036
2017-05-01T08:07:48.458Z,6056
2017-05-01T08:08:28.913Z,6068
2017-05-01T08:09:09.410Z,6088
2017-05-01T08:09:49.876Z,6108
2017-05-01T08:10:30.342Z,6132
2017-05-01T08:11:10.834Z,6168
2017-05-01T08:11:51.322Z,6224
2017-05-01T08:12:31.791Z,6280
2017-05-01T08:13:12.304Z,6324
2017-05-01T08:13:52.782Z,6372
2017-05-01T08:14:33.253Z,6412
2017-05-01T08:15:13.722Z,6456
2017-05-01T08:15:54.189Z,6496
2017-05-01T08:18:22.678Z,6576
2017-05-01T08:19:03.155Z,6596
2017-05-01T08:19:43.635Z,6588
2017-05-01T08:20:24.131Z,6552
2017-05-01T08:21:04.673Z,6544
2017-05-01T08:21:45.143Z,6520
2017-05-01T08:22:25.627Z,6516
2017-05-01T08:23:06.110Z,6512
2017-05-01T08:23:46.592Z,6516
2017-05-01T08:24:27.081Z,6508
2017-05-01T08:25:07.605Z,6512
2017-05-01T08:25:48.085Z,6508
2017-05-01T08:26:28.583Z,6520
2017-05-01T08:27:09.078Z,6520
2017-05-01T08:27:49.577Z,6524
2017-05-01T08:28:30.057Z,6520
2017-05-01T08:29:10.505Z,6528
2017-05-01T08:29:51.016Z,6536
2017-05-01T08:30:31.503Z,6528
2017-05-01T08:31:12.000Z,6516
2017-05-01T08:31:52.507Z,6496
2017-05-01T08:32:33.027Z,6488
2017-05-01T08:33:13.523Z,6536
2017-05-01T08:33:53.969Z,6560
2017-05-01T08:34:34.441Z,6524
2017-05-01T08:35:14.933Z,6568
2017-05-01T08:35:55.426Z,6584
2017-05-01T08:36:35.925Z,6564
2017-05-01T08:37:16.466Z,6560
2017-05-01T08:37:56.993Z,6616
2017-05-01T08:38:37.470Z,6684
2017-05-01T08:39:17.954Z,6652
2017-05-01T08:39:58.434Z,6660
2017-05-01T08:40:38.958Z,6676
2017-05-01T08:41:19.445Z,6684
2017-05-01T08:41:59.923Z,6704
2017-05-01T08:42:40.421Z,6772
2017-05-01T08:43:20.918Z,6832
2017-05-01T08:44:01.434Z,6896
2017-05-01T08:44:41.895Z,6952
2017-05-01T08:47:15.498Z,7064
2017-05-01T08:47:55.944Z,7092
2017-05-01T08:48:36.446Z,7108
2017-05-01T08:49:16.958Z,7144
2017-05-01T08:49:57.425Z,7136
2017-05-01T08:50:37.905Z,7100
2017-05-01T08:51:18.404Z,7104
2017-05-01T08:51:58.886Z,7152
2017-05-01T08:52:39.408Z,7240
2017-05-01T08:53:19.874Z,7324
2017-05-01T08:54:00.363Z,7372
2017-05-01T08:56:18.635Z,7568
2017-05-01T08:56:59.081Z,7632
2017-05-01T08:57:39.566Z,7660
2017-05-01T08:58:20.043Z,7704
2017-05-01T08:59:00.534Z,7764
2017-05-01T08:59:41.071Z,7780
2017-05-01T09:00:21.541Z,7804
2017-05-01T09:01:01.989Z,7844
2017-05-01T09:01:42.470Z,7868
2017-05-01T09:02:22.974Z,7880
2017-05-01T09:03:03.476Z,7908
2017-05-01T09:03:43.923Z,7956
2017-05-01T09:04:24.373Z,7996
2017-05-01T09:05:04.851Z,8044
2017-05-01T09:05:45.361Z,8068
2017-05-01T09:06:25.870Z,8120
2017-05-01T09:07:06.344Z,8128
2017-05-01T09:07:46.800Z,8160
2017-05-01T09:08:27.292Z,8176
2017-05-01T09:09:07.859Z,8228
2017-05-01T09:09:48.331Z,8204
2017-05-01T09:10:28.795Z,8248
2017-05-01T09:11:09.307Z,8268
2017-05-01T09:11:49.791Z,8296
2017-05-01T09:12:30.235Z,8292
2017-05-01T09:13:10.727Z,8264
2017-05-01T09:13:51.175Z,8236
2017-05-01T09:14:31.679Z,8216
2017-05-01T09:15:12.211Z,8228
2017-05-01T09:15:52.694Z,8224
2017-05-01T09:16:33.185Z,8204
2017-05-01T09:17:13.659Z,8156
2017-05-01T09:17:54.147Z,8148
2017-05-01T09:18:34.657Z,8176
2017-05-01T09:19:15.157Z,8160
2017-05-01T09:19:55.670Z,8132
2017-05-01T09:20:36.122Z,8104
2017-05-01T09:21:16.626Z,8108
2017-05-01T09:21:57.103Z,8144
2017-05-01T09:22:37.604Z,8128
2017-05-01T09:23:18.109Z,8160
2017-05-01T09:23:58.626Z,8148
2017-05-01T09:24:39.074Z,8112
2017-05-01T09:25:19.559Z,8080
2017-05-01T09:26:00.044Z,8072
2017-05-01T09:26:40.530Z,8076
2017-05-01T09:27:21.022Z,8064
2017-05-01T09:28:01.520Z,8072
2017-05-01T09:28:42.006Z,8024
2017-05-01T09:29:22.489Z,7960
2017-05-01T09:30:02.973Z,7916
2017-05-01T09:30:43.450Z,7916
2017-05-01T09:31:23.933Z,7920
2017-05-01T09:32:04.456Z,7908
2017-05-01T09:32:44.912Z,7940
2017-05-01T09:33:25.396Z,7916
2017-05-01T09:34:05.901Z,7888
2017-05-01T09:34:46.379Z,7900
2017-05-01T09:35:26.899Z,7900
2017-05-01T09:36:07.365Z,7864
2017-05-01T09:36:47.842Z,7848